Shrewsbury Township, New Jersey
Current Conditions -  °F | °C
As of 7:35 PM on Friday 21 Nov 2014 (Local Time) from KBLM Reporting Station
Clear Clear  
Wind Chill: 23°   Ceiling: Unl
Heat Index: 28°   Visibility: 10mi
Dew Point:   Wind: 5mph
Humidity: 43%   Direction: 260°W
Pressure: 30.48"   Gusts: NA
Location:  40.2996°N, 74.074°W
Report Text: KBLM 220035Z AUTO 26004KT 10SM CLR M02/M13 A3048 RMK AO1
Loading
Personal Weather Stations






























Interactive Weather Map New forecast layout! Learn more

10-Day Weather Forecast

Advertisements
Track Severe Weather on mobile